Flight Track Log - Related Links

Times and Time Zones

All times are in EDT time to prevent confusion due to time zone crossing. See the TAM3617 flight status page for this flight to view local times or setup timezone preferences in your user account.

Time Position Orientation Groundspeed Altitude Reporting Facility
EDT Latitude Longitude Course Direction KTS MPH feet Rate Location/Type
Wed 10:14:00 PM -22.8709 -44.2736 266° West  Level Estimated
Wed 10:15:00 PM -22.8754 -44.3529 266° West  Level Estimated
Wed 10:16:00 PM -22.8799 -44.4322 266° West  Level Estimated
Wed 10:17:00 PM -22.8843 -44.5115 267° West  Level Estimated
Wed 10:18:00 PM -22.8887 -44.5907 267° West  Level Estimated
Wed 10:19:00 PM -22.8930 -44.6700 267° West  Level Estimated
Wed 10:20:00 PM -22.8973 -44.7493 267° West  Level Estimated
Wed 10:21:00 PM -22.9016 -44.8286 267° West  Level Estimated
Wed 10:22:00 PM -22.9058 -44.9079 267° West  Level Estimated
Wed 10:23:00 PM -22.9100 -44.9872 267° West  Level Estimated
Wed 10:24:00 PM -22.9141 -45.0665 267° West  Level Estimated
Wed 10:25:00 PM -22.9182 -45.1459 267° West  Level Estimated
Wed 10:26:00 PM -22.9223 -45.2252 267° West  Level Estimated
Wed 10:27:00 PM -22.9263 -45.3045 267° West  Level Estimated
Wed 10:28:00 PM -22.9303 -45.3838 267° West  Level Estimated
Wed 10:29:00 PM -22.9342 -45.4632 267° West  Level Estimated
Wed 10:30:00 PM -22.9382 -45.5425 267° West  Level Estimated
Wed 10:31:00 PM -22.9420 -45.6219 267° West  Level Estimated
Wed 10:32:00 PM -22.9459 -45.7012 267° West  Level Estimated
Wed 10:33:00 PM -22.9496 -45.7806 267° West  Level Estimated
Wed 10:34:00 PM -22.9534 -45.8599 267° West  Level Estimated
Wed 10:35:00 PM -22.9571 -45.9393 267° West  Level Estimated
Wed 10:36:00 PM -22.9608 -46.0187 267° West  Level Estimated
Wed 10:37:00 PM -22.9644 -46.0980 267° West  Level Estimated
Wed 10:38:00 PM -22.9680 -46.1774 267° West  Level Estimated
Wed 10:39:00 PM -22.9715 -46.2568 267° West  Level Estimated
Wed 10:40:00 PM -22.9751 -46.3362 267° West  Level Estimated
Wed 10:41:00 PM -22.9785 -46.4156 267° West  Level Estimated
Wed 10:42:00 PM -22.9820 -46.4950 267° West  Level Estimated
Wed 10:43:00 PM -22.9853 -46.5744 267° West  Level Estimated
Wed 10:44:00 PM -22.9887 -46.6538 267° West  Level Estimated
Wed 10:45:00 PM -22.9920 -46.7332 267° West  Level Estimated
Wed 10:46:00 PM -22.9953 -46.8126 267° West  Level Estimated
Wed 10:47:00 PM -22.9985 -46.8920 267° West  Level Estimated
Wed 10:48:00 PM -23.0017 -46.9714 267° West  Level Estimated
Wed 10:49:00 PM -23.0049 -47.0508 268° West  Level Estimated
Wed 10:50:00 PM -23.0080 -47.1303 268° West  Level Estimated
Wed 10:51:00 PM -23.0082 -47.1347 268° West  Level Estimated
Wed 10:52:00 PM -23.0082 -47.1347 335° Northwest  Level Estimated
Wed 10:53:00 PM -23.0082 -47.1347 335° Northwest  Level Estimated
Wed 10:54:00 PM -23.0082 -47.1347 335° Northwest  Level Estimated
Wed 10:55:00 PM -23.0082 -47.1347 335° Northwest  Level Estimated
Wed 10:56:00 PM -23.0082 -47.1347 335° Northwest  Level Estimated
Wed 10:57:00 PM -23.0082 -47.1347 335° Northwest  Level Estimated
Wed 10:58:00 PM -23.0082 -47.1347 335° Northwest  Level Estimated
Wed 10:59:00 PM -23.0082 -47.1347 335° Northwest  Level Estimated
Wed 11:00:00 PM -23.0082 -47.1347 335° Northwest  Level Estimated
Wed 11:01:00 PM -23.0082 -47.1347 335° Northwest  Level Estimated
Wed 11:02:00 PM -23.0082 -47.1347 335° Northwest  Level Estimated
Wed 11:03:00 PM -23.0082 -47.1347 335° Northwest  Level Estimated
Wed 11:04:00 PM -23.0082 -47.1347 335° Northwest  Level Estimated
Wed 11:05:00 PM -23.0082 -47.1347 335° Northwest  Level Estimated
Wed 11:06:00 PM -23.0082 -47.1347 335° Northwest  Level Estimated

Login

Don't have an account? Register now (free) for customized features, flight alerts, and more!